sensor_id;sensor_type;location;lat;lon;timestamp;P1;durP1;ratioP1;P2;durP2;ratioP2
42802;SDS011;28447;48.682;9.022;2023-07-29T04:02:57;5.00;;;4.50;;
42802;SDS011;28447;48.682;9.022;2023-07-29T04:05:22;6.87;;;6.07;;
42802;SDS011;28447;48.682;9.022;2023-07-29T04:07:48;11.07;;;8.67;;
42802;SDS011;28447;48.682;9.022;2023-07-29T04:10:13;10.17;;;9.17;;
42802;SDS011;28447;48.682;9.022;2023-07-29T04:12:39;15.53;;;13.40;;
42802;SDS011;28447;48.682;9.022;2023-07-29T04:15:05;14.67;;;13.23;;
42802;SDS011;28447;48.682;9.022;2023-07-29T04:17:31;7.07;;;5.83;;
42802;SDS011;28447;48.682;9.022;2023-07-29T04:19:56;7.03;;;4.50;;
42802;SDS011;28447;48.682;9.022;2023-07-29T04:22:22;8.73;;;4.43;;
42802;SDS011;28447;48.682;9.022;2023-07-29T04:24:48;8.30;;;4.30;;
42802;SDS011;28447;48.682;9.022;2023-07-29T04:27:13;8.00;;;3.90;;
42802;SDS011;28447;48.682;9.022;2023-07-29T04:29:39;9.73;;;4.27;;
42802;SDS011;28447;48.682;9.022;2023-07-29T04:32:05;5.23;;;4.50;;
42802;SDS011;28447;48.682;9.022;2023-07-29T04:34:31;5.97;;;4.63;;
42802;SDS011;28447;48.682;9.022;2023-07-29T04:36:56;5.47;;;4.33;;
42802;SDS011;28447;48.682;9.022;2023-07-29T04:39:22;6.60;;;4.03;;
42802;SDS011;28447;48.682;9.022;2023-07-29T04:41:48;5.23;;;4.70;;
42802;SDS011;28447;48.682;9.022;2023-07-29T04:44:13;5.13;;;4.13;;
42802;SDS011;28447;48.682;9.022;2023-07-29T04:46:39;10.77;;;4.90;;
42802;SDS011;28447;48.682;9.022;2023-07-29T04:49:05;7.13;;;4.20;;
42802;SDS011;28447;48.682;9.022;2023-07-29T04:51:30;6.07;;;4.27;;
42802;SDS011;28447;48.682;9.022;2023-07-29T04:53:59;7.63;;;4.33;;
42802;SDS011;28447;48.682;9.022;2023-07-29T04:56:25;6.63;;;4.97;;
42802;SDS011;28447;48.682;9.022;2023-07-29T04:58:51;5.23;;;4.50;;
42802;SDS011;28447;48.682;9.022;2023-07-29T05:01:17;6.63;;;4.53;;
42802;SDS011;28447;48.682;9.022;2023-07-29T05:03:43;6.00;;;5.27;;
42802;SDS011;28447;48.682;9.022;2023-07-29T05:06:08;12.03;;;5.23;;
42802;SDS011;28447;48.682;9.022;2023-07-29T05:08:34;8.37;;;5.07;;
42802;SDS011;28447;48.682;9.022;2023-07-29T05:11:00;6.90;;;4.93;;
42802;SDS011;28447;48.682;9.022;2023-07-29T05:13:25;8.33;;;5.30;;
42802;SDS011;28447;48.682;9.022;2023-07-29T05:15:51;8.10;;;4.70;;
42802;SDS011;28447;48.682;9.022;2023-07-29T05:18:17;5.70;;;4.30;;
42802;SDS011;28447;48.682;9.022;2023-07-29T05:20:43;5.77;;;4.70;;
42802;SDS011;28447;48.682;9.022;2023-07-29T05:23:08;5.73;;;4.73;;
42802;SDS011;28447;48.682;9.022;2023-07-29T05:25:34;5.03;;;4.27;;
42802;SDS011;28447;48.682;9.022;2023-07-29T05:28:00;5.57;;;3.93;;
42802;SDS011;28447;48.682;9.022;2023-07-29T05:30:26;4.90;;;4.00;;
42802;SDS011;28447;48.682;9.022;2023-07-29T05:32:56;4.20;;;3.80;;
42802;SDS011;28447;48.682;9.022;2023-07-29T05:35:22;4.30;;;3.90;;
42802;SDS011;28447;48.682;9.022;2023-07-29T05:37:48;5.27;;;4.40;;
42802;SDS011;28447;48.682;9.022;2023-07-29T05:40:14;5.97;;;4.07;;
42802;SDS011;28447;48.682;9.022;2023-07-29T05:42:39;5.93;;;4.23;;
42802;SDS011;28447;48.682;9.022;2023-07-29T05:45:05;9.80;;;4.10;;
42802;SDS011;28447;48.682;9.022;2023-07-29T05:47:31;4.20;;;3.80;;
42802;SDS011;28447;48.682;9.022;2023-07-29T05:49:57;4.03;;;3.63;;
42802;SDS011;28447;48.682;9.022;2023-07-29T05:52:22;5.37;;;3.47;;
42802;SDS011;28447;48.682;9.022;2023-07-29T05:54:48;4.57;;;3.50;;
42802;SDS011;28447;48.682;9.022;2023-07-29T05:57:14;4.50;;;3.40;;
42802;SDS011;28447;48.682;9.022;2023-07-29T05:59:39;4.90;;;3.80;;
42802;SDS011;28447;48.682;9.022;2023-07-29T06:02:05;3.63;;;3.30;;
42802;SDS011;28447;48.682;9.022;2023-07-29T06:04:31;4.87;;;3.30;;
42802;SDS011;28447;48.682;9.022;2023-07-29T06:06:57;4.10;;;3.27;;
42802;SDS011;28447;48.682;9.022;2023-07-29T06:09:23;6.23;;;3.00;;
42802;SDS011;28447;48.682;9.022;2023-07-29T06:11:50;3.30;;;3.00;;
42802;SDS011;28447;48.682;9.022;2023-07-29T06:14:16;5.13;;;4.63;;
42802;SDS011;28447;48.682;9.022;2023-07-29T06:16:41;7.40;;;3.70;;
42802;SDS011;28447;48.682;9.022;2023-07-29T06:19:07;4.50;;;2.93;;
42802;SDS011;28447;48.682;9.022;2023-07-29T06:21:34;4.10;;;3.33;;
42802;SDS011;28447;48.682;9.022;2023-07-29T06:24:00;3.17;;;2.87;;
42802;SDS011;28447;48.682;9.022;2023-07-29T06:26:25;3.10;;;2.73;;
42802;SDS011;28447;48.682;9.022;2023-07-29T06:28:51;7.80;;;3.47;;
42802;SDS011;28447;48.682;9.022;2023-07-29T06:31:17;3.30;;;3.00;;
42802;SDS011;28447;48.682;9.022;2023-07-29T06:33:42;4.93;;;3.00;;
42802;SDS011;28447;48.682;9.022;2023-07-29T06:36:08;5.17;;;3.00;;
42802;SDS011;28447;48.682;9.022;2023-07-29T06:38:33;5.33;;;2.77;;
42802;SDS011;28447;48.682;9.022;2023-07-29T06:40:59;5.40;;;2.90;;
42802;SDS011;28447;48.682;9.022;2023-07-29T06:43:25;7.73;;;3.27;;
42802;SDS011;28447;48.682;9.022;2023-07-29T06:45:50;3.40;;;2.90;;
42802;SDS011;28447;48.682;9.022;2023-07-29T06:48:16;4.50;;;3.20;;
42802;SDS011;28447;48.682;9.022;2023-07-29T06:50:43;3.97;;;3.20;;
42802;SDS011;28447;48.682;9.022;2023-07-29T06:53:09;4.40;;;3.77;;
42802;SDS011;28447;48.682;9.022;2023-07-29T06:55:35;4.23;;;3.10;;
42802;SDS011;28447;48.682;9.022;2023-07-29T06:58:01;4.00;;;3.20;;
42802;SDS011;28447;48.682;9.022;2023-07-29T07:00:27;3.27;;;2.80;;
42802;SDS011;28447;48.682;9.022;2023-07-29T07:02:52;3.23;;;2.67;;
42802;SDS011;28447;48.682;9.022;2023-07-29T07:05:18;5.20;;;2.70;;
42802;SDS011;28447;48.682;9.022;2023-07-29T07:07:44;3.30;;;2.53;;
42802;SDS011;28447;48.682;9.022;2023-07-29T07:10:10;3.20;;;2.73;;
42802;SDS011;28447;48.682;9.022;2023-07-29T07:12:35;3.50;;;2.80;;
42802;SDS011;28447;48.682;9.022;2023-07-29T07:15:01;3.33;;;2.87;;
42802;SDS011;28447;48.682;9.022;2023-07-29T07:17:27;3.63;;;3.30;;
42802;SDS011;28447;48.682;9.022;2023-07-29T07:19:52;5.70;;;3.10;;
42802;SDS011;28447;48.682;9.022;2023-07-29T07:22:18;4.00;;;2.83;;
42802;SDS011;28447;48.682;9.022;2023-07-29T07:24:44;2.90;;;2.60;;
42802;SDS011;28447;48.682;9.022;2023-07-29T07:27:09;3.10;;;2.37;;
42802;SDS011;28447;48.682;9.022;2023-07-29T07:29:35;10.93;;;3.57;;
42802;SDS011;28447;48.682;9.022;2023-07-29T07:32:01;3.20;;;2.90;;
42802;SDS011;28447;48.682;9.022;2023-07-29T07:34:27;4.37;;;3.00;;
42802;SDS011;28447;48.682;9.022;2023-07-29T07:36:53;3.67;;;3.00;;
42802;SDS011;28447;48.682;9.022;2023-07-29T07:39:18;4.03;;;3.07;;
42802;SDS011;28447;48.682;9.022;2023-07-29T07:41:44;3.50;;;2.80;;
42802;SDS011;28447;48.682;9.022;2023-07-29T07:44:10;3.27;;;2.53;;
42802;SDS011;28447;48.682;9.022;2023-07-29T07:46:37;3.80;;;2.67;;
42802;SDS011;28447;48.682;9.022;2023-07-29T07:49:03;5.33;;;2.70;;
42802;SDS011;28447;48.682;9.022;2023-07-29T07:51:29;3.50;;;2.63;;
42802;SDS011;28447;48.682;9.022;2023-07-29T07:53:55;4.33;;;2.80;;
42802;SDS011;28447;48.682;9.022;2023-07-29T07:56:20;6.60;;;2.80;;
42802;SDS011;28447;48.682;9.022;2023-07-29T07:58:46;3.17;;;2.87;;
42802;SDS011;28447;48.682;9.022;2023-07-29T08:01:11;3.47;;;2.50;;
42802;SDS011;28447;48.682;9.022;2023-07-29T08:03:37;2.70;;;2.23;;
42802;SDS011;28447;48.682;9.022;2023-07-29T08:06:04;2.93;;;2.57;;
42802;SDS011;28447;48.682;9.022;2023-07-29T08:08:29;3.10;;;2.70;;
42802;SDS011;28447;48.682;9.022;2023-07-29T08:10:56;3.13;;;2.40;;
42802;SDS011;28447;48.682;9.022;2023-07-29T08:13:22;3.20;;;2.40;;
42802;SDS011;28447;48.682;9.022;2023-07-29T08:15:49;2.63;;;2.07;;
42802;SDS011;28447;48.682;9.022;2023-07-29T08:18:17;2.80;;;1.90;;
42802;SDS011;28447;48.682;9.022;2023-07-29T08:20:56;2.87;;;2.10;;
42802;SDS011;28447;48.682;9.022;2023-07-29T08:23:24;2.23;;;2.03;;
42802;SDS011;28447;48.682;9.022;2023-07-29T08:25:54;2.60;;;2.40;;
42802;SDS011;28447;48.682;9.022;2023-07-29T08:28:21;3.70;;;2.53;;
42802;SDS011;28447;48.682;9.022;2023-07-29T08:30:47;2.63;;;2.33;;
42802;SDS011;28447;48.682;9.022;2023-07-29T08:33:13;2.97;;;2.40;;
42802;SDS011;28447;48.682;9.022;2023-07-29T08:35:39;2.50;;;2.30;;
42802;SDS011;28447;48.682;9.022;2023-07-29T08:38:05;2.50;;;2.30;;
42802;SDS011;28447;48.682;9.022;2023-07-29T08:40:31;2.23;;;2.03;;
42802;SDS011;28447;48.682;9.022;2023-07-29T08:42:59;2.00;;;1.80;;
42802;SDS011;28447;48.682;9.022;2023-07-29T08:45:29;2.67;;;2.40;;
42802;SDS011;28447;48.682;9.022;2023-07-29T08:47:59;2.70;;;2.43;;
42802;SDS011;28447;48.682;9.022;2023-07-29T08:50:27;2.87;;;2.40;;
42802;SDS011;28447;48.682;9.022;2023-07-29T08:52:54;3.10;;;2.40;;
42802;SDS011;28447;48.682;9.022;2023-07-29T08:55:20;2.50;;;2.10;;
42802;SDS011;28447;48.682;9.022;2023-07-29T08:57:46;2.87;;;2.10;;
42802;SDS011;28447;48.682;9.022;2023-07-29T09:00:12;2.50;;;2.27;;
42802;SDS011;28447;48.682;9.022;2023-07-29T09:02:38;2.50;;;2.23;;
42802;SDS011;28447;48.682;9.022;2023-07-29T09:05:04;3.00;;;2.30;;
42802;SDS011;28447;48.682;9.022;2023-07-29T09:07:30;2.87;;;2.53;;
42802;SDS011;28447;48.682;9.022;2023-07-29T09:09:57;3.23;;;2.40;;
42802;SDS011;28447;48.682;9.022;2023-07-29T09:12:23;5.30;;;2.47;;
42802;SDS011;28447;48.682;9.022;2023-07-29T09:14:51;2.30;;;2.03;;
42802;SDS011;28447;48.682;9.022;2023-07-29T09:17:18;3.03;;;2.73;;
42802;SDS011;28447;48.682;9.022;2023-07-29T09:19:47;3.03;;;2.40;;
42802;SDS011;28447;48.682;9.022;2023-07-29T09:22:17;2.93;;;2.67;;
42802;SDS011;28447;48.682;9.022;2023-07-29T09:24:45;5.33;;;2.57;;
42802;SDS011;28447;48.682;9.022;2023-07-29T09:27:23;3.40;;;2.50;;
42802;SDS011;28447;48.682;9.022;2023-07-29T09:29:49;2.70;;;2.47;;
42802;SDS011;28447;48.682;9.022;2023-07-29T09:32:22;2.73;;;2.40;;
42802;SDS011;28447;48.682;9.022;2023-07-29T09:34:48;2.83;;;2.60;;
42802;SDS011;28447;48.682;9.022;2023-07-29T09:37:15;2.67;;;2.40;;
42802;SDS011;28447;48.682;9.022;2023-07-29T09:39:45;3.00;;;2.73;;
42802;SDS011;28447;48.682;9.022;2023-07-29T09:42:16;2.93;;;2.63;;
42802;SDS011;28447;48.682;9.022;2023-07-29T09:44:46;2.87;;;2.60;;
42802;SDS011;28447;48.682;9.022;2023-07-29T09:47:23;3.13;;;2.73;;
42802;SDS011;28447;48.682;9.022;2023-07-29T09:49:50;3.53;;;3.10;;
42802;SDS011;28447;48.682;9.022;2023-07-29T09:52:17;3.00;;;2.70;;
42802;SDS011;28447;48.682;9.022;2023-07-29T09:54:44;3.53;;;3.20;;
42802;SDS011;28447;48.682;9.022;2023-07-29T09:57:14;3.30;;;2.63;;
42802;SDS011;28447;48.682;9.022;2023-07-29T09:59:41;3.70;;;3.00;;
42802;SDS011;28447;48.682;9.022;2023-07-29T10:02:13;2.60;;;2.40;;
42802;SDS011;28447;48.682;9.022;2023-07-29T10:04:41;2.70;;;2.50;;
42802;SDS011;28447;48.682;9.022;2023-07-29T10:07:07;3.00;;;2.70;;
42802;SDS011;28447;48.682;9.022;2023-07-29T10:09:40;3.30;;;3.00;;
42802;SDS011;28447;48.682;9.022;2023-07-29T10:12:07;2.73;;;2.50;;
42802;SDS011;28447;48.682;9.022;2023-07-29T10:14:34;3.33;;;2.60;;
42802;SDS011;28447;48.682;9.022;2023-07-29T10:17:01;3.63;;;2.80;;
42802;SDS011;28447;48.682;9.022;2023-07-29T10:19:28;3.50;;;2.60;;
42802;SDS011;28447;48.682;9.022;2023-07-29T10:21:55;4.73;;;3.23;;
42802;SDS011;28447;48.682;9.022;2023-07-29T10:24:24;2.73;;;2.53;;
42802;SDS011;28447;48.682;9.022;2023-07-29T10:26:57;2.77;;;2.57;;
42802;SDS011;28447;48.682;9.022;2023-07-29T10:29:24;3.17;;;2.83;;
42802;SDS011;28447;48.682;9.022;2023-07-29T10:31:53;2.60;;;2.30;;
42802;SDS011;28447;48.682;9.022;2023-07-29T10:34:22;2.53;;;2.20;;
42802;SDS011;28447;48.682;9.022;2023-07-29T10:36:49;2.63;;;2.43;;
42802;SDS011;28447;48.682;9.022;2023-07-29T10:39:16;2.43;;;2.23;;
42802;SDS011;28447;48.682;9.022;2023-07-29T10:41:58;5.23;;;2.70;;
42802;SDS011;28447;48.682;9.022;2023-07-29T10:45:09;2.60;;;2.40;;
42802;SDS011;28447;48.682;9.022;2023-07-29T10:47:15;3.43;;;2.40;;
42802;SDS011;28447;48.682;9.022;2023-07-29T10:49:47;3.10;;;2.70;;
42802;SDS011;28447;48.682;9.022;2023-07-29T10:52:15;2.80;;;2.30;;
42802;SDS011;28447;48.682;9.022;2023-07-29T10:54:42;6.87;;;2.50;;
42802;SDS011;28447;48.682;9.022;2023-07-29T10:57:13;5.23;;;2.57;;
42802;SDS011;28447;48.682;9.022;2023-07-29T10:59:55;2.80;;;2.50;;
42802;SDS011;28447;48.682;9.022;2023-07-29T11:02:22;3.70;;;2.77;;
42802;SDS011;28447;48.682;9.022;2023-07-29T11:05:06;6.73;;;2.87;;
42802;SDS011;28447;48.682;9.022;2023-07-29T11:07:49;3.00;;;2.50;;
42802;SDS011;28447;48.682;9.022;2023-07-29T11:10:15;2.87;;;2.60;;
42802;SDS011;28447;48.682;9.022;2023-07-29T11:15:13;2.93;;;2.70;;
42802;SDS011;28447;48.682;9.022;2023-07-29T11:20:13;2.97;;;2.67;;
42802;SDS011;28447;48.682;9.022;2023-07-29T11:22:40;3.23;;;2.90;;
42802;SDS011;28447;48.682;9.022;2023-07-29T11:25:10;3.20;;;2.50;;
42802;SDS011;28447;48.682;9.022;2023-07-29T11:27:37;3.53;;;3.10;;
42802;SDS011;28447;48.682;9.022;2023-07-29T11:30:04;2.63;;;2.43;;
42802;SDS011;28447;48.682;9.022;2023-07-29T11:32:34;3.00;;;2.60;;
42802;SDS011;28447;48.682;9.022;2023-07-29T11:35:07;3.47;;;2.67;;
42802;SDS011;28447;48.682;9.022;2023-07-29T11:37:36;3.10;;;2.60;;
42802;SDS011;28447;48.682;9.022;2023-07-29T11:40:03;2.60;;;2.40;;
42802;SDS011;28447;48.682;9.022;2023-07-29T11:42:31;3.43;;;2.90;;
42802;SDS011;28447;48.682;9.022;2023-07-29T11:44:58;3.70;;;2.77;;
42802;SDS011;28447;48.682;9.022;2023-07-29T11:47:24;4.23;;;2.80;;
42802;SDS011;28447;48.682;9.022;2023-07-29T11:49:51;3.57;;;2.50;;
42802;SDS011;28447;48.682;9.022;2023-07-29T11:52:16;4.10;;;2.60;;
42802;SDS011;28447;48.682;9.022;2023-07-29T11:54:45;3.17;;;2.73;;
42802;SDS011;28447;48.682;9.022;2023-07-29T11:57:14;2.87;;;2.57;;
42802;SDS011;28447;48.682;9.022;2023-07-29T11:59:41;3.20;;;2.90;;
42802;SDS011;28447;48.682;9.022;2023-07-29T12:02:11;9.23;;;2.90;;
42802;SDS011;28447;48.682;9.022;2023-07-29T12:04:38;3.13;;;2.73;;
42802;SDS011;28447;48.682;9.022;2023-07-29T12:07:05;3.13;;;2.67;;
42802;SDS011;28447;48.682;9.022;2023-07-29T12:09:32;3.20;;;2.90;;
42802;SDS011;28447;48.682;9.022;2023-07-29T12:11:59;4.20;;;2.50;;
42802;SDS011;28447;48.682;9.022;2023-07-29T12:14:26;3.03;;;2.73;;
42802;SDS011;28447;48.682;9.022;2023-07-29T12:16:55;2.90;;;2.50;;
42802;SDS011;28447;48.682;9.022;2023-07-29T12:19:20;5.10;;;2.80;;
42802;SDS011;28447;48.682;9.022;2023-07-29T12:21:50;3.80;;;2.63;;
42802;SDS011;28447;48.682;9.022;2023-07-29T12:24:16;2.80;;;2.60;;
42802;SDS011;28447;48.682;9.022;2023-07-29T12:26:41;3.33;;;2.60;;
42802;SDS011;28447;48.682;9.022;2023-07-29T12:29:17;3.27;;;2.57;;
42802;SDS011;28447;48.682;9.022;2023-07-29T12:31:47;3.50;;;2.73;;
42802;SDS011;28447;48.682;9.022;2023-07-29T12:34:19;3.78;;;2.65;;
42802;SDS011;28447;48.682;9.022;2023-07-29T12:36:47;3.72;;;2.65;;
42802;SDS011;28447;48.682;9.022;2023-07-29T12:39:26;4.95;;;2.95;;
42802;SDS011;28447;48.682;9.022;2023-07-29T12:41:54;3.17;;;2.58;;
42802;SDS011;28447;48.682;9.022;2023-07-29T12:44:24;2.80;;;2.60;;
42802;SDS011;28447;48.682;9.022;2023-07-29T12:46:52;3.65;;;3.35;;
42802;SDS011;28447;48.682;9.022;2023-07-29T12:49:18;2.45;;;2.25;;
42802;SDS011;28447;48.682;9.022;2023-07-29T12:51:45;2.90;;;2.55;;
42802;SDS011;28447;48.682;9.022;2023-07-29T12:54:11;3.13;;;2.80;;
42802;SDS011;28447;48.682;9.022;2023-07-29T12:56:36;4.28;;;2.67;;
42802;SDS011;28447;48.682;9.022;2023-07-29T12:59:02;3.53;;;2.90;;
42802;SDS011;28447;48.682;9.022;2023-07-29T13:01:28;3.70;;;2.40;;
42802;SDS011;28447;48.682;9.022;2023-07-29T13:03:54;3.10;;;2.80;;
42802;SDS011;28447;48.682;9.022;2023-07-29T13:06:21;2.80;;;2.60;;
42802;SDS011;28447;48.682;9.022;2023-07-29T13:08:47;2.97;;;2.67;;
42802;SDS011;28447;48.682;9.022;2023-07-29T13:11:13;3.67;;;2.92;;
42802;SDS011;28447;48.682;9.022;2023-07-29T13:13:39;3.03;;;2.72;;
42802;SDS011;28447;48.682;9.022;2023-07-29T13:16:05;3.38;;;2.53;;
42802;SDS011;28447;48.682;9.022;2023-07-29T13:18:31;2.42;;;2.20;;
42802;SDS011;28447;48.682;9.022;2023-07-29T13:20:57;2.30;;;2.10;;
42802;SDS011;28447;48.682;9.022;2023-07-29T13:23:23;2.60;;;2.40;;
42802;SDS011;28447;48.682;9.022;2023-07-29T13:25:49;3.37;;;2.70;;
42802;SDS011;28447;48.682;9.022;2023-07-29T13:28:15;4.30;;;2.60;;
42802;SDS011;28447;48.682;9.022;2023-07-29T13:30:41;3.60;;;2.33;;
42802;SDS011;28447;48.682;9.022;2023-07-29T13:33:07;3.20;;;2.90;;
42802;SDS011;28447;48.682;9.022;2023-07-29T13:35:33;2.83;;;2.63;;
42802;SDS011;28447;48.682;9.022;2023-07-29T13:37:59;5.40;;;2.60;;
42802;SDS011;28447;48.682;9.022;2023-07-29T13:40:26;2.87;;;2.50;;
42802;SDS011;28447;48.682;9.022;2023-07-29T13:42:51;2.87;;;2.60;;
42802;SDS011;28447;48.682;9.022;2023-07-29T13:45:17;3.30;;;3.00;;
42802;SDS011;28447;48.682;9.022;2023-07-29T13:47:43;2.70;;;2.50;;
42802;SDS011;28447;48.682;9.022;2023-07-29T13:50:09;3.07;;;2.60;;
42802;SDS011;28447;48.682;9.022;2023-07-29T13:52:36;2.77;;;2.57;;
42802;SDS011;28447;48.682;9.022;2023-07-29T13:55:02;3.40;;;3.10;;
42802;SDS011;28447;48.682;9.022;2023-07-29T13:57:29;2.67;;;2.47;;
42802;SDS011;28447;48.682;9.022;2023-07-29T13:59:55;3.23;;;2.80;;
42802;SDS011;28447;48.682;9.022;2023-07-29T14:02:20;5.03;;;2.80;;
42802;SDS011;28447;48.682;9.022;2023-07-29T14:04:46;3.20;;;2.90;;
42802;SDS011;28447;48.682;9.022;2023-07-29T14:07:11;3.33;;;2.93;;
42802;SDS011;28447;48.682;9.022;2023-07-29T14:09:37;3.83;;;3.00;;
42802;SDS011;28447;48.682;9.022;2023-07-29T14:12:03;2.67;;;2.47;;
42802;SDS011;28447;48.682;9.022;2023-07-29T14:14:30;2.93;;;2.67;;
42802;SDS011;28447;48.682;9.022;2023-07-29T14:16:56;3.27;;;2.97;;
42802;SDS011;28447;48.682;9.022;2023-07-29T14:19:21;3.40;;;2.77;;
42802;SDS011;28447;48.682;9.022;2023-07-29T14:21:48;2.80;;;2.50;;
42802;SDS011;28447;48.682;9.022;2023-07-29T14:24:16;3.20;;;2.60;;
42802;SDS011;28447;48.682;9.022;2023-07-29T14:26:42;3.17;;;2.87;;
42802;SDS011;28447;48.682;9.022;2023-07-29T14:29:07;3.30;;;2.70;;
42802;SDS011;28447;48.682;9.022;2023-07-29T14:31:33;2.90;;;2.60;;
42802;SDS011;28447;48.682;9.022;2023-07-29T14:33:59;3.10;;;2.80;;
42802;SDS011;28447;48.682;9.022;2023-07-29T14:36:25;3.40;;;2.87;;
42802;SDS011;28447;48.682;9.022;2023-07-29T14:38:50;6.90;;;2.87;;
42802;SDS011;28447;48.682;9.022;2023-07-29T14:41:16;3.30;;;2.50;;
42802;SDS011;28447;48.682;9.022;2023-07-29T14:43:42;2.50;;;2.30;;
42802;SDS011;28447;48.682;9.022;2023-07-29T14:46:08;3.07;;;2.80;;
42802;SDS011;28447;48.682;9.022;2023-07-29T14:48:34;2.97;;;2.60;;
42802;SDS011;28447;48.682;9.022;2023-07-29T14:51:00;3.53;;;2.60;;
42802;SDS011;28447;48.682;9.022;2023-07-29T14:53:26;3.37;;;3.07;;
42802;SDS011;28447;48.682;9.022;2023-07-29T14:55:51;3.30;;;3.00;;
42802;SDS011;28447;48.682;9.022;2023-07-29T14:58:17;3.53;;;3.13;;
42802;SDS011;28447;48.682;9.022;2023-07-29T15:00:43;5.80;;;2.70;;
42802;SDS011;28447;48.682;9.022;2023-07-29T15:03:09;3.27;;;2.97;;
42802;SDS011;28447;48.682;9.022;2023-07-29T15:05:35;3.17;;;2.77;;
42802;SDS011;28447;48.682;9.022;2023-07-29T15:08:00;2.63;;;2.33;;
42802;SDS011;28447;48.682;9.022;2023-07-29T15:10:26;3.33;;;3.03;;
42802;SDS011;28447;48.682;9.022;2023-07-29T15:12:52;2.80;;;2.47;;
42802;SDS011;28447;48.682;9.022;2023-07-29T15:15:18;4.10;;;3.00;;
42802;SDS011;28447;48.682;9.022;2023-07-29T15:17:44;2.70;;;2.50;;
42802;SDS011;28447;48.682;9.022;2023-07-29T15:20:10;3.87;;;2.87;;
42802;SDS011;28447;48.682;9.022;2023-07-29T15:22:36;2.90;;;2.60;;
42802;SDS011;28447;48.682;9.022;2023-07-29T15:25:03;3.30;;;3.00;;
42802;SDS011;28447;48.682;9.022;2023-07-29T15:27:29;3.40;;;2.70;;
42802;SDS011;28447;48.682;9.022;2023-07-29T15:29:56;2.70;;;2.50;;
42802;SDS011;28447;48.682;9.022;2023-07-29T15:32:22;4.03;;;2.40;;
42802;SDS011;28447;48.682;9.022;2023-07-29T15:34:48;3.40;;;2.83;;
42802;SDS011;28447;48.682;9.022;2023-07-29T15:37:14;3.83;;;2.80;;
42802;SDS011;28447;48.682;9.022;2023-07-29T15:39:40;3.63;;;3.07;;
42802;SDS011;28447;48.682;9.022;2023-07-29T15:42:06;3.60;;;2.70;;
42802;SDS011;28447;48.682;9.022;2023-07-29T15:44:32;3.20;;;2.90;;
42802;SDS011;28447;48.682;9.022;2023-07-29T15:46:58;6.83;;;2.17;;
42802;SDS011;28447;48.682;9.022;2023-07-29T15:49:24;4.33;;;2.77;;
42802;SDS011;28447;48.682;9.022;2023-07-29T15:51:50;3.27;;;2.60;;
42802;SDS011;28447;48.682;9.022;2023-07-29T15:54:16;6.53;;;2.53;;
42802;SDS011;28447;48.682;9.022;2023-07-29T15:56:42;2.90;;;2.60;;
42802;SDS011;28447;48.682;9.022;2023-07-29T15:59:08;3.17;;;2.80;;
42802;SDS011;28447;48.682;9.022;2023-07-29T16:01:35;3.50;;;2.77;;
42802;SDS011;28447;48.682;9.022;2023-07-29T16:04:01;3.43;;;2.73;;
42802;SDS011;28447;48.682;9.022;2023-07-29T16:06:26;2.70;;;2.50;;
42802;SDS011;28447;48.682;9.022;2023-07-29T16:08:52;3.43;;;3.13;;
42802;SDS011;28447;48.682;9.022;2023-07-29T16:11:18;2.90;;;2.60;;
42802;SDS011;28447;48.682;9.022;2023-07-29T16:13:45;4.67;;;2.87;;
42802;SDS011;28447;48.682;9.022;2023-07-29T16:16:11;3.30;;;2.90;;
42802;SDS011;28447;48.682;9.022;2023-07-29T16:18:37;2.53;;;2.33;;
42802;SDS011;28447;48.682;9.022;2023-07-29T16:21:04;2.90;;;2.60;;
42802;SDS011;28447;48.682;9.022;2023-07-29T16:23:31;2.67;;;2.43;;
42802;SDS011;28447;48.682;9.022;2023-07-29T16:25:58;2.90;;;2.67;;
42802;SDS011;28447;48.682;9.022;2023-07-29T16:28:24;3.17;;;2.73;;
42802;SDS011;28447;48.682;9.022;2023-07-29T16:30:50;3.23;;;2.93;;
42802;SDS011;28447;48.682;9.022;2023-07-29T16:33:16;3.00;;;2.70;;
42802;SDS011;28447;48.682;9.022;2023-07-29T16:35:42;3.00;;;2.70;;
42802;SDS011;28447;48.682;9.022;2023-07-29T16:38:08;2.63;;;2.43;;
42802;SDS011;28447;48.682;9.022;2023-07-29T16:40:34;3.20;;;2.80;;
42802;SDS011;28447;48.682;9.022;2023-07-29T16:42:59;3.40;;;2.70;;
42802;SDS011;28447;48.682;9.022;2023-07-29T16:45:25;3.00;;;2.70;;
42802;SDS011;28447;48.682;9.022;2023-07-29T16:47:55;4.27;;;3.00;;
42802;SDS011;28447;48.682;9.022;2023-07-29T16:50:21;2.93;;;2.63;;
42802;SDS011;28447;48.682;9.022;2023-07-29T16:52:47;4.03;;;2.90;;
42802;SDS011;28447;48.682;9.022;2023-07-29T16:55:21;4.07;;;3.20;;
42802;SDS011;28447;48.682;9.022;2023-07-29T16:57:47;3.17;;;2.83;;
42802;SDS011;28447;48.682;9.022;2023-07-29T17:00:13;3.73;;;3.27;;
42802;SDS011;28447;48.682;9.022;2023-07-29T17:02:39;3.20;;;2.90;;
42802;SDS011;28447;48.682;9.022;2023-07-29T17:05:04;4.27;;;3.37;;
42802;SDS011;28447;48.682;9.022;2023-07-29T17:07:32;4.33;;;3.10;;
42802;SDS011;28447;48.682;9.022;2023-07-29T17:09:58;6.37;;;3.20;;
42802;SDS011;28447;48.682;9.022;2023-07-29T17:12:23;5.00;;;3.43;;
42802;SDS011;28447;48.682;9.022;2023-07-29T17:14:49;6.13;;;3.47;;
42802;SDS011;28447;48.682;9.022;2023-07-29T17:17:14;11.50;;;5.57;;
42802;SDS011;28447;48.682;9.022;2023-07-29T17:19:40;11.10;;;5.03;;
42802;SDS011;28447;48.682;9.022;2023-07-29T17:22:06;13.60;;;5.80;;
42802;SDS011;28447;48.682;9.022;2023-07-29T17:24:32;10.10;;;5.40;;
42802;SDS011;28447;48.682;9.022;2023-07-29T17:26:58;6.90;;;5.50;;
42802;SDS011;28447;48.682;9.022;2023-07-29T17:29:24;6.50;;;4.87;;
42802;SDS011;28447;48.682;9.022;2023-07-29T17:31:50;13.63;;;6.20;;
42802;SDS011;28447;48.682;9.022;2023-07-29T17:34:16;8.50;;;5.20;;
42802;SDS011;28447;48.682;9.022;2023-07-29T17:36:41;8.00;;;4.70;;
42802;SDS011;28447;48.682;9.022;2023-07-29T17:39:07;7.47;;;4.50;;
42802;SDS011;28447;48.682;9.022;2023-07-29T17:41:33;8.57;;;4.80;;
42802;SDS011;28447;48.682;9.022;2023-07-29T17:43:58;6.97;;;5.70;;
42802;SDS011;28447;48.682;9.022;2023-07-29T17:46:24;8.30;;;5.00;;
42802;SDS011;28447;48.682;9.022;2023-07-29T17:48:50;6.23;;;5.07;;
42802;SDS011;28447;48.682;9.022;2023-07-29T17:51:15;7.20;;;4.60;;
42802;SDS011;28447;48.682;9.022;2023-07-29T17:53:41;5.87;;;4.80;;
42802;SDS011;28447;48.682;9.022;2023-07-29T17:56:07;5.77;;;4.47;;
42802;SDS011;28447;48.682;9.022;2023-07-29T17:58:37;5.93;;;4.10;;
42802;SDS011;28447;48.682;9.022;2023-07-29T18:01:03;8.53;;;4.83;;
42802;SDS011;28447;48.682;9.022;2023-07-29T18:03:29;4.60;;;4.10;;
42802;SDS011;28447;48.682;9.022;2023-07-29T18:05:54;5.53;;;4.43;;
42802;SDS011;28447;48.682;9.022;2023-07-29T18:08:21;5.90;;;3.90;;
42802;SDS011;28447;48.682;9.022;2023-07-29T18:10:46;4.40;;;4.00;;
42802;SDS011;28447;48.682;9.022;2023-07-29T18:13:12;8.23;;;4.30;;
42802;SDS011;28447;48.682;9.022;2023-07-29T18:15:38;4.63;;;4.23;;
42802;SDS011;28447;48.682;9.022;2023-07-29T18:18:03;5.30;;;4.07;;
42802;SDS011;28447;48.682;9.022;2023-07-29T18:20:30;7.50;;;4.77;;
42802;SDS011;28447;48.682;9.022;2023-07-29T18:22:56;4.73;;;4.23;;
42802;SDS011;28447;48.682;9.022;2023-07-29T18:25:27;7.17;;;4.80;;
42802;SDS011;28447;48.682;9.022;2023-07-29T18:27:53;6.70;;;4.70;;
42802;SDS011;28447;48.682;9.022;2023-07-29T18:30:18;5.00;;;4.43;;
42802;SDS011;28447;48.682;9.022;2023-07-29T18:32:44;6.63;;;5.20;;
42802;SDS011;28447;48.682;9.022;2023-07-29T18:35:09;6.43;;;4.40;;
42802;SDS011;28447;48.682;9.022;2023-07-29T18:37:42;7.90;;;5.17;;
42802;SDS011;28447;48.682;9.022;2023-07-29T18:40:11;5.80;;;5.13;;
42802;SDS011;28447;48.682;9.022;2023-07-29T18:42:37;5.40;;;4.90;;
42802;SDS011;28447;48.682;9.022;2023-07-29T18:45:03;4.80;;;4.40;;
42802;SDS011;28447;48.682;9.022;2023-07-29T18:47:30;9.83;;;5.50;;
42802;SDS011;28447;48.682;9.022;2023-07-29T18:49:55;5.97;;;5.03;;
42802;SDS011;28447;48.682;9.022;2023-07-29T18:52:21;6.40;;;4.87;;